createdAt,value
2023-03-11T00:00:27.084Z,13.67
2023-03-11T00:02:56.935Z,13.60
2023-03-11T00:05:26.994Z,11.67
2023-03-11T00:07:55.717Z,12.63
2023-03-11T00:10:29.881Z,11.67
2023-03-11T00:12:58.623Z,17.87
2023-03-11T00:15:27.367Z,13.37
2023-03-11T00:17:56.005Z,15.63
2023-03-11T00:20:26.113Z,13.43
2023-03-11T00:22:54.993Z,11.33
2023-03-11T00:25:26.174Z,12.47
2023-03-11T00:27:54.674Z,16.23
2023-03-11T00:30:24.188Z,18.90
2023-03-11T00:32:54.304Z,15.50
2023-03-11T00:35:25.187Z,17.87
2023-03-11T00:37:55.415Z,16.73
2023-03-11T00:40:26.469Z,14.13
2023-03-11T00:42:54.797Z,14.23
2023-03-11T00:45:23.625Z,15.27
2023-03-11T00:47:51.961Z,12.37
2023-03-11T00:50:23.122Z,18.23
2023-03-11T00:52:52.625Z,17.70
2023-03-11T00:55:23.855Z,14.60
2023-03-11T00:57:55.210Z,16.97
2023-03-11T01:00:25.049Z,15.23
2023-03-11T01:02:54.558Z,17.63
2023-03-11T01:05:24.307Z,17.83
2023-03-11T01:07:53.251Z,16.83
2023-03-11T01:10:21.812Z,17.00
2023-03-11T01:12:50.432Z,16.10
2023-03-11T01:15:24.237Z,15.60
2023-03-11T01:17:52.528Z,20.13
2023-03-11T01:20:21.188Z,19.57
2023-03-11T01:22:49.505Z,14.83
2023-03-11T01:25:19.705Z,14.73
2023-03-11T01:27:47.996Z,18.47
2023-03-11T01:30:19.617Z,17.17
2023-03-11T01:32:49.416Z,15.60
2023-03-11T01:35:20.065Z,16.93
2023-03-11T01:37:48.743Z,15.17
2023-03-11T01:40:20.578Z,16.20
2023-03-11T01:42:48.855Z,17.70
2023-03-11T01:45:35.290Z,14.13
2023-03-11T01:48:05.026Z,14.87
2023-03-11T01:50:37.352Z,17.53
2023-03-11T01:53:06.855Z,16.07
2023-03-11T01:55:35.330Z,15.83
2023-03-11T01:58:07.262Z,14.53
2023-03-11T02:00:36.608Z,14.97
2023-03-11T02:03:11.131Z,15.03
2023-03-11T02:05:40.916Z,19.37
2023-03-11T02:08:09.784Z,17.50
2023-03-11T02:10:40.199Z,17.40
2023-03-11T02:13:09.114Z,17.97
2023-03-11T02:15:39.570Z,20.63
2023-03-11T02:18:10.512Z,17.47
2023-03-11T02:20:48.266Z,17.13
2023-03-11T02:23:18.924Z,22.03
2023-03-11T02:25:54.164Z,19.50
2023-03-11T02:28:25.233Z,20.57
2023-03-11T02:30:54.408Z,20.13
2023-03-11T02:33:24.556Z,21.67
2023-03-11T02:35:53.109Z,17.93
2023-03-11T02:38:21.367Z,22.70
2023-03-11T02:40:54.044Z,19.07
2023-03-11T02:43:28.767Z,23.90
2023-03-11T02:45:58.313Z,20.40
2023-03-11T02:48:27.318Z,24.90
2023-03-11T02:50:55.754Z,18.43
2023-03-11T02:53:24.085Z,21.77
2023-03-11T02:55:52.330Z,22.33
2023-03-11T02:58:20.652Z,20.33
2023-03-11T03:00:50.329Z,17.43
2023-03-11T03:03:18.772Z,19.67
2023-03-11T03:05:47.149Z,23.27
2023-03-11T03:08:15.432Z,24.70
2023-03-11T03:10:43.745Z,19.50
2023-03-11T03:13:12.462Z,20.27
2023-03-11T03:15:40.888Z,21.10
2023-03-11T03:18:10.530Z,18.13
2023-03-11T03:20:38.762Z,21.37
2023-03-11T03:23:07.130Z,22.73
2023-03-11T03:25:35.441Z,17.57
2023-03-11T03:28:03.764Z,20.10
2023-03-11T03:30:31.988Z,19.90
2023-03-11T03:33:00.296Z,17.03
2023-03-11T03:35:30.031Z,18.20
2023-03-11T03:37:59.015Z,18.67
2023-03-11T03:40:27.385Z,19.83
2023-03-11T03:42:55.662Z,21.27
2023-03-11T03:45:23.988Z,19.50
2023-03-11T03:47:52.266Z,15.60
2023-03-11T03:50:20.641Z,19.43
2023-03-11T03:52:50.386Z,16.37
2023-03-11T03:55:18.760Z,18.33
2023-03-11T03:57:47.105Z,21.50
2023-03-11T04:00:16.784Z,18.63
2023-03-11T04:02:45.042Z,21.00
2023-03-11T04:05:14.683Z,20.70
2023-03-11T04:07:43.038Z,17.87
2023-03-11T04:10:15.068Z,19.47
2023-03-11T04:12:43.345Z,21.03
2023-03-11T04:15:12.022Z,19.63
2023-03-11T04:17:40.614Z,19.10
2023-03-11T04:20:10.961Z,19.00
2023-03-11T04:22:39.248Z,19.73
2023-03-11T04:25:08.642Z,19.30
2023-03-11T04:27:42.666Z,21.80
2023-03-11T04:30:12.306Z,19.97
2023-03-11T04:32:40.643Z,20.23
2023-03-11T04:35:09.531Z,20.37
2023-03-11T04:37:37.798Z,19.63
2023-03-11T04:40:07.055Z,20.73
2023-03-11T04:42:35.325Z,20.13
2023-03-11T04:45:05.329Z,20.40
2023-03-11T04:47:33.665Z,21.40
2023-03-11T04:50:02.097Z,22.67
2023-03-11T04:52:30.384Z,23.33
2023-03-11T04:54:58.713Z,21.20
2023-03-11T04:57:27.017Z,22.37
2023-03-11T04:59:55.340Z,21.23
2023-03-11T05:02:25.078Z,19.50
2023-03-11T05:04:53.473Z,17.93
2023-03-11T05:07:21.774Z,21.63
2023-03-11T05:09:50.041Z,14.03
2023-03-11T05:12:18.300Z,15.33
2023-03-11T05:14:46.676Z,16.87
2023-03-11T05:17:15.158Z,16.17
2023-03-11T05:19:44.819Z,14.90
2023-03-11T05:22:13.401Z,10.90
2023-03-11T05:24:41.991Z,13.07
2023-03-11T05:27:10.374Z,11.43
2023-03-11T05:29:38.615Z,13.63
2023-03-11T05:32:07.474Z,13.97
2023-03-11T05:34:35.757Z,17.90
2023-03-11T05:37:05.461Z,13.43
2023-03-11T05:39:33.750Z,14.00
2023-03-11T05:42:02.296Z,14.40
2023-03-11T05:44:30.667Z,13.37
2023-03-11T05:46:59.211Z,11.90
2023-03-11T05:49:27.816Z,15.37
2023-03-11T05:51:58.654Z,13.17
2023-03-11T05:54:28.682Z,13.90
2023-03-11T05:56:57.168Z,13.03
2023-03-11T05:59:25.407Z,15.33
2023-03-11T06:01:54.088Z,13.20
2023-03-11T06:04:22.502Z,11.73
2023-03-11T06:06:50.756Z,14.43
2023-03-11T06:09:19.376Z,12.07
2023-03-11T06:11:49.343Z,13.17
2023-03-11T06:14:17.861Z,11.50
2023-03-11T06:16:46.130Z,9.37
2023-03-11T06:19:14.609Z,10.90
2023-03-11T06:21:42.883Z,8.23
2023-03-11T06:24:11.147Z,7.47
2023-03-11T06:26:39.424Z,7.00
2023-03-11T06:29:12.803Z,8.23
2023-03-11T06:31:41.642Z,9.33
2023-03-11T06:34:11.382Z,8.93
2023-03-11T06:36:39.967Z,7.57
2023-03-11T06:39:09.153Z,10.10
2023-03-11T06:41:37.448Z,5.97
2023-03-11T06:44:06.038Z,8.67
2023-03-11T06:46:36.108Z,6.97
2023-03-11T06:49:04.767Z,6.30
2023-03-11T06:51:33.100Z,6.53
2023-03-11T06:54:01.363Z,5.93
2023-03-11T06:56:29.764Z,6.43
2023-03-11T06:58:58.196Z,6.70
2023-03-11T07:01:28.241Z,7.60
2023-03-11T07:03:58.225Z,6.60
2023-03-11T07:06:29.053Z,6.23
2023-03-11T07:08:57.308Z,6.93
2023-03-11T07:11:30.031Z,8.77
2023-03-11T07:13:58.359Z,7.83
2023-03-11T07:16:28.456Z,7.47
2023-03-11T07:19:01.002Z,7.47
2023-03-11T07:21:31.605Z,6.70
2023-03-11T07:24:01.619Z,6.88
2023-03-11T07:26:31.350Z,6.77
2023-03-11T07:28:59.799Z,7.03
2023-03-11T07:31:30.370Z,5.40
2023-03-11T07:34:01.164Z,9.07
2023-03-11T07:36:30.553Z,7.90
2023-03-11T07:39:01.075Z,6.80
2023-03-11T07:41:31.382Z,6.30
2023-03-11T07:44:01.318Z,7.47
2023-03-11T07:46:31.557Z,7.17
2023-03-11T07:49:03.698Z,9.00
2023-03-11T07:51:34.282Z,11.03
2023-03-11T07:54:03.640Z,9.30
2023-03-11T07:56:34.052Z,8.93
2023-03-11T07:59:03.603Z,7.63
2023-03-11T08:01:36.433Z,7.37
2023-03-11T08:04:07.875Z,6.83
2023-03-11T08:06:37.810Z,9.77
2023-03-11T08:09:10.067Z,9.40
2023-03-11T08:11:38.802Z,6.50
2023-03-11T08:14:07.519Z,5.57
2023-03-11T08:16:36.006Z,8.17
2023-03-11T08:19:05.696Z,8.63
2023-03-11T08:21:34.021Z,8.80
2023-03-11T08:24:06.573Z,12.20
2023-03-11T08:26:35.201Z,10.30
2023-03-11T08:29:03.500Z,10.77
2023-03-11T08:31:33.786Z,8.47
2023-03-11T08:34:04.625Z,8.33
2023-03-11T08:36:34.797Z,8.83
2023-03-11T08:39:03.687Z,9.40
2023-03-11T08:41:32.078Z,11.00
2023-03-11T08:44:00.417Z,10.73
2023-03-11T08:46:30.901Z,10.63
2023-03-11T08:49:01.345Z,14.17
2023-03-11T08:51:30.822Z,12.20
2023-03-11T08:54:01.111Z,14.13
2023-03-11T08:56:29.766Z,15.47
2023-03-11T08:58:58.366Z,15.73
2023-03-11T09:01:26.692Z,19.17
2023-03-11T09:03:54.921Z,23.20
2023-03-11T09:06:24.555Z,23.67
2023-03-11T09:08:52.892Z,22.53
2023-03-11T09:11:22.991Z,20.43
2023-03-11T09:13:51.949Z,22.13
2023-03-11T09:16:23.039Z,20.37
2023-03-11T09:18:51.804Z,18.20
2023-03-11T09:21:20.289Z,15.87
2023-03-11T09:23:49.262Z,16.30
2023-03-11T09:26:17.676Z,15.03
2023-03-11T09:28:49.306Z,15.47
2023-03-11T09:31:18.132Z,15.90
2023-03-11T09:33:47.503Z,15.97
2023-03-11T09:36:17.966Z,16.63
2023-03-11T09:38:46.490Z,15.60
2023-03-11T09:41:24.385Z,15.87
2023-03-11T09:44:09.075Z,17.00
2023-03-11T09:47:17.725Z,16.00
2023-03-11T09:50:06.032Z,18.50
2023-03-11T09:52:44.080Z,15.77
2023-03-11T09:55:31.737Z,15.10
2023-03-11T09:58:04.119Z,15.27
2023-03-11T10:00:34.098Z,15.17
2023-03-11T10:03:04.354Z,14.60
2023-03-11T10:05:33.610Z,14.83
2023-03-11T10:08:10.261Z,16.03
2023-03-11T10:10:44.842Z,15.97
2023-03-11T10:13:19.310Z,17.40
2023-03-11T10:15:53.930Z,17.17
2023-03-11T10:18:47.872Z,17.73
2023-03-11T10:21:25.796Z,18.17
2023-03-11T10:24:14.458Z,17.17
2023-03-11T10:26:46.327Z,17.20
2023-03-11T10:29:20.993Z,17.97
2023-03-11T10:31:54.923Z,17.30
2023-03-11T10:34:29.232Z,18.87
2023-03-11T10:37:03.986Z,16.73
2023-03-11T10:39:34.118Z,18.00
2023-03-11T10:42:05.631Z,17.90
2023-03-11T10:44:36.106Z,19.87
2023-03-11T10:47:06.792Z,16.00
2023-03-11T10:49:35.189Z,15.07
2023-03-11T10:52:05.541Z,14.70
2023-03-11T10:54:37.542Z,15.20
2023-03-11T10:57:20.186Z,18.20
2023-03-11T10:59:50.557Z,13.57
2023-03-11T11:02:27.997Z,11.87
2023-03-11T11:05:28.459Z,12.20
2023-03-11T11:08:06.486Z,13.47
2023-03-11T11:10:38.859Z,11.47
2023-03-11T11:13:19.884Z,14.63
2023-03-11T11:15:57.373Z,14.57
2023-03-11T11:18:29.886Z,10.93
2023-03-11T11:21:02.595Z,9.73
2023-03-11T11:23:42.036Z,12.02
2023-03-11T11:26:19.497Z,9.87
2023-03-11T11:28:47.826Z,10.87
2023-03-11T11:31:25.584Z,9.88
2023-03-11T11:33:56.442Z,8.47
2023-03-11T11:36:28.823Z,8.27
2023-03-11T11:38:58.093Z,9.40
2023-03-11T11:41:30.627Z,9.80
2023-03-11T11:44:02.459Z,9.97
2023-03-11T11:46:36.601Z,9.50
2023-03-11T11:49:17.409Z,8.13
2023-03-11T11:51:52.249Z,12.47
2023-03-11T11:54:26.676Z,10.07
2023-03-11T11:56:57.091Z,7.83
2023-03-11T11:59:26.882Z,8.07
2023-03-11T12:02:08.314Z,9.00
2023-03-11T12:04:51.487Z,8.37
2023-03-11T12:07:31.041Z,8.93
2023-03-11T12:10:22.718Z,7.37
2023-03-11T12:13:24.162Z,8.47
2023-03-11T12:15:59.748Z,8.50
2023-03-11T12:18:35.262Z,8.10
2023-03-11T12:21:23.686Z,10.53
2023-03-11T12:24:06.110Z,8.07
2023-03-11T12:26:38.004Z,8.27
2023-03-11T12:29:16.019Z,8.17
2023-03-11T12:31:45.589Z,8.05
2023-03-11T12:34:19.395Z,6.72
2023-03-11T12:36:50.965Z,6.83
2023-03-11T12:39:25.131Z,8.48
2023-03-11T12:42:18.176Z,6.80
2023-03-11T12:44:47.595Z,16.67
2023-03-11T12:47:25.034Z,6.47
2023-03-11T12:49:55.319Z,7.67
2023-03-11T12:52:34.377Z,7.80
2023-03-11T12:55:38.973Z,7.33
2023-03-11T12:58:41.953Z,7.67
2023-03-11T13:01:44.021Z,7.97
2023-03-11T13:04:25.787Z,7.67
2023-03-11T13:07:21.316Z,7.90
2023-03-11T13:10:04.445Z,5.10
2023-03-11T13:12:42.184Z,8.25
2023-03-11T13:15:38.194Z,6.43
2023-03-11T13:18:18.548Z,7.57
2023-03-11T13:20:57.182Z,5.47
2023-03-11T13:23:31.415Z,4.90
2023-03-11T13:26:29.465Z,5.78
2023-03-11T13:29:29.224Z,3.10
2023-03-11T13:32:14.480Z,4.32
2023-03-11T13:34:49.131Z,2.50
2023-03-11T13:37:36.930Z,2.75
2023-03-11T13:40:18.277Z,3.28
2023-03-11T13:42:50.482Z,3.95
2023-03-11T13:45:28.550Z,3.75
2023-03-11T13:48:01.056Z,4.45
2023-03-11T13:50:35.827Z,2.83
2023-03-11T13:53:09.206Z,4.63
2023-03-11T13:55:41.153Z,5.93
2023-03-11T13:58:21.236Z,6.10
2023-03-11T14:00:52.108Z,5.53
2023-03-11T14:03:23.860Z,5.22
2023-03-11T14:05:59.249Z,2.50
2023-03-11T14:08:29.722Z,3.85
2023-03-11T14:10:59.631Z,6.18
2023-03-11T14:13:30.832Z,3.03
2023-03-11T14:16:04.457Z,3.03
2023-03-11T14:18:40.869Z,3.88
2023-03-11T14:21:15.057Z,3.72
2023-03-11T14:23:45.170Z,3.20
2023-03-11T14:26:19.607Z,4.43
2023-03-11T14:28:52.621Z,3.97
2023-03-11T14:31:30.401Z,3.53
2023-03-11T14:34:04.410Z,4.25
2023-03-11T14:36:40.766Z,2.65
2023-03-11T14:39:29.286Z,3.88
2023-03-11T14:42:02.949Z,3.10
2023-03-11T14:44:35.547Z,3.03
2023-03-11T14:47:10.915Z,2.97
2023-03-11T14:49:40.610Z,3.75
2023-03-11T14:52:17.239Z,3.88
2023-03-11T14:54:46.951Z,5.72
2023-03-11T14:57:23.442Z,2.97
2023-03-11T14:59:55.631Z,4.47
2023-03-11T15:02:47.078Z,9.65
2023-03-11T15:05:20.992Z,7.03
2023-03-11T15:07:52.465Z,12.77
2023-03-11T15:10:20.948Z,8.52
2023-03-11T15:12:49.874Z,8.63
2023-03-11T15:15:28.859Z,5.63
2023-03-11T15:17:58.756Z,4.60
2023-03-11T15:20:33.508Z,4.55
2023-03-11T15:23:03.110Z,3.67
2023-03-11T15:25:34.534Z,4.85
2023-03-11T15:28:21.223Z,5.00
2023-03-11T15:30:50.973Z,3.90
2023-03-11T15:33:24.578Z,5.30
2023-03-11T15:35:52.910Z,6.13
2023-03-11T15:38:25.650Z,6.57
2023-03-11T15:40:56.502Z,3.80
2023-03-11T15:43:28.571Z,29.97
2023-03-11T15:45:58.879Z,7.37
2023-03-11T15:48:29.034Z,9.03
2023-03-11T15:50:59.349Z,4.50
2023-03-11T15:53:29.201Z,6.93
2023-03-11T15:56:07.002Z,3.00
2023-03-11T15:58:38.251Z,5.27
2023-03-11T16:01:08.491Z,5.47
2023-03-11T16:03:38.919Z,4.50
2023-03-11T16:06:08.054Z,2.97
2023-03-11T16:08:36.441Z,4.63
2023-03-11T16:11:04.752Z,4.47
2023-03-11T16:13:33.025Z,9.37
2023-03-11T16:16:04.197Z,3.27
2023-03-11T16:18:35.843Z,3.70
2023-03-11T16:21:10.050Z,4.10
2023-03-11T16:23:51.076Z,3.77
2023-03-11T16:26:20.935Z,2.63
2023-03-11T16:28:49.366Z,2.77
2023-03-11T16:31:17.749Z,2.53
2023-03-11T16:33:47.499Z,6.67
2023-03-11T16:36:15.751Z,4.70
2023-03-11T16:38:46.504Z,4.33
2023-03-11T16:41:15.376Z,4.30
2023-03-11T16:43:43.998Z,5.80
2023-03-11T16:46:12.310Z,4.97
2023-03-11T16:48:40.687Z,2.90
2023-03-11T16:51:10.379Z,2.87
2023-03-11T16:53:38.750Z,6.07
2023-03-11T16:56:08.066Z,5.07
2023-03-11T16:58:36.350Z,3.03
2023-03-11T17:01:04.859Z,2.40
2023-03-11T17:03:41.829Z,5.77
2023-03-11T17:06:12.088Z,2.63
2023-03-11T17:08:40.495Z,3.27
2023-03-11T17:11:16.372Z,4.63
2023-03-11T17:13:44.916Z,5.67
2023-03-11T17:16:13.706Z,4.77
2023-03-11T17:18:42.074Z,6.63
2023-03-11T17:21:14.127Z,3.60
2023-03-11T17:23:43.026Z,4.27
2023-03-11T17:26:12.430Z,4.37
2023-03-11T17:28:41.255Z,4.17
2023-03-11T17:31:13.235Z,4.47
2023-03-11T17:33:42.056Z,7.53
2023-03-11T17:36:15.981Z,4.07
2023-03-11T17:38:44.881Z,6.57
2023-03-11T17:41:19.449Z,4.67
2023-03-11T17:43:50.240Z,4.27
2023-03-11T17:46:20.556Z,3.37
2023-03-11T17:48:50.350Z,1.73
2023-03-11T17:51:22.142Z,2.57
2023-03-11T17:53:51.797Z,3.97
2023-03-11T17:56:21.545Z,8.70
2023-03-11T17:58:50.621Z,7.47
2023-03-11T18:01:21.064Z,3.87
2023-03-11T18:03:50.062Z,6.33
2023-03-11T18:06:21.810Z,4.20
2023-03-11T18:08:50.332Z,4.47
2023-03-11T18:11:21.053Z,4.03
2023-03-11T18:13:49.672Z,3.70
2023-03-11T18:16:20.620Z,6.27
2023-03-11T18:18:49.634Z,3.30
2023-03-11T18:21:21.901Z,6.83
2023-03-11T18:23:50.573Z,4.40
2023-03-11T18:26:19.984Z,6.90
2023-03-11T18:28:48.509Z,4.03
2023-03-11T18:31:19.263Z,4.43
2023-03-11T18:33:50.934Z,3.60
2023-03-11T18:36:22.841Z,2.30
2023-03-11T18:38:53.340Z,3.03
2023-03-11T18:41:22.144Z,2.90
2023-03-11T18:43:53.706Z,2.60
2023-03-11T18:46:22.369Z,3.20
2023-03-11T18:48:50.808Z,6.33
2023-03-11T18:51:20.444Z,5.40
2023-03-11T18:53:48.781Z,4.87
2023-03-11T18:56:18.528Z,2.57
2023-03-11T18:58:47.325Z,2.53
2023-03-11T19:01:17.148Z,2.00
2023-03-11T19:03:49.876Z,2.53
2023-03-11T19:06:18.190Z,4.40
2023-03-11T19:08:47.896Z,4.27
2023-03-11T19:11:18.270Z,4.83
2023-03-11T19:13:47.938Z,4.50
2023-03-11T19:16:17.917Z,2.83
2023-03-11T19:18:46.901Z,2.53
2023-03-11T19:21:16.592Z,4.27
2023-03-11T19:23:45.101Z,4.17
2023-03-11T19:26:23.908Z,2.83
2023-03-11T19:28:56.337Z,3.43
2023-03-11T19:31:24.636Z,2.07
2023-03-11T19:33:52.921Z,2.53
2023-03-11T19:36:21.211Z,2.33
2023-03-11T19:38:49.512Z,2.30
2023-03-11T19:41:20.646Z,2.13
2023-03-11T19:43:49.206Z,3.60
2023-03-11T19:46:19.996Z,2.37
2023-03-11T19:48:48.378Z,1.53
2023-03-11T19:51:19.450Z,3.57
2023-03-11T19:53:47.815Z,2.60
2023-03-11T19:56:16.528Z,2.17
2023-03-11T19:58:46.215Z,1.80
2023-03-11T20:01:18.376Z,2.30
2023-03-11T20:03:46.700Z,3.90
2023-03-11T20:06:18.477Z,2.43
2023-03-11T20:08:46.811Z,1.97
2023-03-11T20:11:15.187Z,1.53
2023-03-11T20:13:45.112Z,1.17
2023-03-11T20:16:18.496Z,2.77
2023-03-11T20:18:50.554Z,1.83
2023-03-11T20:21:19.153Z,5.27
2023-03-11T20:23:49.051Z,4.30
2023-03-11T20:26:19.804Z,3.03
2023-03-11T20:28:49.722Z,1.30
2023-03-11T20:31:21.002Z,1.80
2023-03-11T20:33:50.820Z,1.93
2023-03-11T20:36:22.031Z,3.07
2023-03-11T20:38:51.105Z,3.90
2023-03-11T20:41:19.777Z,1.83
2023-03-11T20:43:49.567Z,2.27
2023-03-11T20:46:18.063Z,4.57
2023-03-11T20:48:46.938Z,3.30
2023-03-11T20:51:19.273Z,3.87
2023-03-11T20:53:47.864Z,2.50
2023-03-11T20:56:19.646Z,2.70
2023-03-11T20:58:51.287Z,5.73
2023-03-11T21:01:21.561Z,4.53
2023-03-11T21:03:50.892Z,5.03
2023-03-11T21:06:21.640Z,3.07
2023-03-11T21:08:50.527Z,4.00
2023-03-11T21:11:19.379Z,3.10
2023-03-11T21:13:49.281Z,3.80
2023-03-11T21:16:18.010Z,2.90
2023-03-11T21:18:49.276Z,4.70
2023-03-11T21:21:19.024Z,2.50
2023-03-11T21:23:48.229Z,8.60
2023-03-11T21:26:18.377Z,2.60
2023-03-11T21:28:48.076Z,6.23
2023-03-11T21:31:18.450Z,2.77
2023-03-11T21:33:47.244Z,2.90
2023-03-11T21:36:17.499Z,4.53
2023-03-11T21:38:46.938Z,3.23
2023-03-11T21:41:16.947Z,2.60
2023-03-11T21:43:46.012Z,4.90
2023-03-11T21:46:18.447Z,3.53
2023-03-11T21:48:47.774Z,6.47
2023-03-11T21:51:16.549Z,3.77
2023-03-11T21:53:45.216Z,2.30
2023-03-11T21:56:14.948Z,3.83
2023-03-11T21:58:43.963Z,2.77
2023-03-11T22:01:12.965Z,2.10
2023-03-11T22:03:43.916Z,3.37
2023-03-11T22:06:14.045Z,2.17
2023-03-11T22:08:42.593Z,4.93
2023-03-11T22:11:13.996Z,3.30
2023-03-11T22:13:42.533Z,6.33
2023-03-11T22:16:11.217Z,5.37
2023-03-11T22:18:39.780Z,2.37
2023-03-11T22:21:10.874Z,2.40
2023-03-11T22:23:39.342Z,5.53
2023-03-11T22:26:07.687Z,4.93
2023-03-11T22:28:36.197Z,3.70
2023-03-11T22:31:07.987Z,3.17
2023-03-11T22:33:36.450Z,2.57
2023-03-11T22:36:05.723Z,3.10
2023-03-11T22:38:36.945Z,5.00
2023-03-11T22:41:07.626Z,5.53
2023-03-11T22:43:36.424Z,3.03
2023-03-11T22:46:06.196Z,4.03
2023-03-11T22:48:35.092Z,1.80
2023-03-11T22:51:03.922Z,6.20
2023-03-11T22:53:32.531Z,3.17
2023-03-11T22:56:06.968Z,3.67
2023-03-11T22:58:35.337Z,1.43
2023-03-11T23:01:04.108Z,2.57
2023-03-11T23:03:32.746Z,3.40
2023-03-11T23:06:01.291Z,1.87
2023-03-11T23:08:29.864Z,4.23
2023-03-11T23:11:02.247Z,3.83
2023-03-11T23:13:32.496Z,1.50
2023-03-11T23:16:05.466Z,3.27
2023-03-11T23:18:33.817Z,3.63
2023-03-11T23:21:02.188Z,3.90
2023-03-11T23:23:30.518Z,3.10
2023-03-11T23:25:58.868Z,4.70
2023-03-11T23:28:27.188Z,2.60
2023-03-11T23:30:56.945Z,4.93
2023-03-11T23:33:25.264Z,5.23
2023-03-11T23:35:53.581Z,1.13
2023-03-11T23:38:21.911Z,2.33
2023-03-11T23:40:50.204Z,3.43
2023-03-11T23:43:18.544Z,2.07
2023-03-11T23:45:46.933Z,2.93
2023-03-11T23:48:16.762Z,2.40
2023-03-11T23:50:47.322Z,6.27
2023-03-11T23:53:16.130Z,2.20
2023-03-11T23:55:44.467Z,3.60
2023-03-11T23:58:12.968Z,4.80
